JOEY weather

Joeys
Tupelo, Arkansas, United States

Public forecast

Using degrees Fahrenheit for public forecast. Weather courtesy of forecast.io.

Closest aviation weather report (METAR) to Joeys

Closest report is Newport Regional Airport, 16.6 nm (30.8 km) NNE. Retrieved UTC (0 seconds ago):

Closest aviation forecast (TAF) to Joeys

Closest forecast is Jonesboro Municipal Airport, 43.0 nm (79.7 km) NE. Retrieved 2019/12/07 12:24 UTC (2 hours ago):

TAF KJBR 071121Z 0712/0812 02007KT P6SM OVC010 FM072200 05003KT P6SM BKN250 FM080000 00000KT P6SM SCT020 FM080600 00000KT P6SM BKN250